createdAt,value
2018-08-13T00:00:31.393Z,32.7
2018-08-13T00:01:32.826Z,32.7
2018-08-13T00:02:34.432Z,32.3
2018-08-13T00:03:36.018Z,32.3
2018-08-13T00:04:37.286Z,32.3
2018-08-13T00:05:38.933Z,32.7
2018-08-13T00:06:40.526Z,33.7
2018-08-13T00:07:41.956Z,33.2
2018-08-13T00:08:43.232Z,33.7
2018-08-13T00:09:44.668Z,32.3
2018-08-13T00:10:46.282Z,32.3
2018-08-13T00:11:47.920Z,32.7
2018-08-13T00:12:49.525Z,32.7
2018-08-13T00:13:50.627Z,32.7
2018-08-13T00:14:52.071Z,32.3
2018-08-13T00:15:53.349Z,32.7
2018-08-13T00:16:54.943Z,32.7
2018-08-13T00:17:56.534Z,32.3
2018-08-13T00:18:57.984Z,32.7
2018-08-13T00:19:59.414Z,32.3
2018-08-13T00:21:01.028Z,32.3
2018-08-13T00:22:02.656Z,32.3
2018-08-13T00:23:04.267Z,32.7
2018-08-13T00:24:05.862Z,32.3
2018-08-13T00:25:07.677Z,31.8
2018-08-13T00:26:09.281Z,32.3
2018-08-13T00:27:10.705Z,33.2
2018-08-13T00:28:12.318Z,32.7
2018-08-13T00:29:13.933Z,32.7
2018-08-13T00:30:15.043Z,32.3
2018-08-13T00:31:16.313Z,32.3
2018-08-13T00:32:17.931Z,32.3
2018-08-13T00:33:19.529Z,32.7
2018-08-13T00:34:20.949Z,32.3
2018-08-13T00:35:22.553Z,32.3
2018-08-13T00:36:24.141Z,32.3
2018-08-13T00:37:25.731Z,32.7
2018-08-13T00:38:27.340Z,32.3
2018-08-13T00:39:28.941Z,32.7
2018-08-13T00:40:30.246Z,32.7
2018-08-13T00:41:31.835Z,32.3
2018-08-13T00:42:33.263Z,32.7
2018-08-13T00:43:34.686Z,32.3
2018-08-13T00:44:36.289Z,32.3
2018-08-13T00:45:37.904Z,32.3
2018-08-13T00:46:39.171Z,32.7
2018-08-13T00:47:40.765Z,32.3
2018-08-13T00:48:41.696Z,32.3
2018-08-13T00:49:43.323Z,31.8
2018-08-13T00:50:44.758Z,32.7
2018-08-13T00:51:46.185Z,33.2
2018-08-13T00:52:47.804Z,32.7
2018-08-13T00:53:49.414Z,32.3
2018-08-13T00:54:51.001Z,32.3
2018-08-13T00:55:52.604Z,32.3
2018-08-13T00:56:54.026Z,32.7
2018-08-13T00:57:55.492Z,32.3
2018-08-13T00:58:57.096Z,32.3
2018-08-13T00:59:58.515Z,32.7
2018-08-13T01:00:59.620Z,32.3
2018-08-13T01:02:01.237Z,32.7
2018-08-13T01:03:02.837Z,32.3
2018-08-13T01:04:04.105Z,32.3
2018-08-13T01:05:05.704Z,32.7
2018-08-13T01:06:07.310Z,32.7
2018-08-13T01:07:08.895Z,32.3
2018-08-13T01:08:10.484Z,30.3
2018-08-13T01:09:12.090Z,29.3
2018-08-13T01:10:13.530Z,27.9
2018-08-13T01:11:14.822Z,27.4
2018-08-13T01:12:16.421Z,28.3
2018-08-13T01:13:18.058Z,28.8
2018-08-13T01:14:19.661Z,30.3
2018-08-13T01:15:20.916Z,31.3
2018-08-13T01:16:22.497Z,32.7
2018-08-13T01:17:23.781Z,33.7
2018-08-13T01:18:25.386Z,34.7
2018-08-13T01:19:26.847Z,35.7
2018-08-13T01:20:28.467Z,35.7
2018-08-13T01:21:29.899Z,35.7
2018-08-13T01:22:31.498Z,36.2
2018-08-13T01:23:33.097Z,36.7
2018-08-13T01:24:34.541Z,37.6
2018-08-13T01:25:35.979Z,37.6
2018-08-13T01:26:37.422Z,37.6
2018-08-13T01:27:38.879Z,38.6
2018-08-13T01:28:40.470Z,38.6
2018-08-13T01:29:42.057Z,38.6
2018-08-13T01:30:43.470Z,39.1
2018-08-13T01:31:44.906Z,38.6
2018-08-13T01:32:46.512Z,39.6
2018-08-13T01:33:48.103Z,40.6
2018-08-13T01:34:49.689Z,40.1
2018-08-13T01:35:51.118Z,39.6
2018-08-13T01:36:52.719Z,40.1
2018-08-13T01:37:54.329Z,40.1
2018-08-13T01:38:55.912Z,39.6
2018-08-13T01:39:57.190Z,40.1
2018-08-13T01:40:58.625Z,40.1
2018-08-13T01:42:00.222Z,40.6
2018-08-13T01:43:01.817Z,40.6
2018-08-13T01:44:03.259Z,40.1
2018-08-13T01:45:04.855Z,41.1
2018-08-13T01:46:06.449Z,41.5
2018-08-13T01:47:07.882Z,41.1
2018-08-13T01:48:09.160Z,41.5
2018-08-13T01:49:10.745Z,41.1
2018-08-13T01:50:12.178Z,41.1
2018-08-13T01:51:13.824Z,41.5
2018-08-13T01:52:15.251Z,41.1
2018-08-13T01:53:16.843Z,40.6
2018-08-13T01:54:18.267Z,41.1
2018-08-13T01:55:19.692Z,41.1
2018-08-13T01:56:21.142Z,41.1
2018-08-13T01:57:22.725Z,41.1
2018-08-13T01:58:23.984Z,41.1
2018-08-13T01:59:25.408Z,41.5
2018-08-13T02:00:26.855Z,41.5
2018-08-13T02:01:28.708Z,41.5
2018-08-13T02:02:30.119Z,41.5
2018-08-13T02:03:31.729Z,41.1
2018-08-13T02:04:33.336Z,41.1
2018-08-13T02:05:34.779Z,40.6
2018-08-13T02:06:36.190Z,41.5
2018-08-13T02:07:37.780Z,41.1
2018-08-13T02:08:39.056Z,41.1
2018-08-13T02:09:40.648Z,41.5
2018-08-13T02:10:42.237Z,41.1
2018-08-13T02:11:43.497Z,41.1
2018-08-13T02:12:45.106Z,41.5
2018-08-13T02:13:46.546Z,40.6
2018-08-13T02:14:48.147Z,41.1
2018-08-13T02:15:49.606Z,40.6
2018-08-13T02:16:51.214Z,40.6
2018-08-13T02:17:52.702Z,41.1
2018-08-13T02:18:54.125Z,39.6
2018-08-13T02:19:55.745Z,40.6
2018-08-13T02:20:57.349Z,40.6
2018-08-13T02:21:58.972Z,40.1
2018-08-13T02:23:00.568Z,40.1
2018-08-13T02:24:02.174Z,40.1
2018-08-13T02:25:03.779Z,40.6
2018-08-13T02:26:05.384Z,40.1
2018-08-13T02:27:06.981Z,41.1
2018-08-13T02:28:08.417Z,40.1
2018-08-13T02:29:09.990Z,40.1
2018-08-13T02:30:11.594Z,40.6
2018-08-13T02:31:12.872Z,40.6
2018-08-13T02:32:14.310Z,40.6
2018-08-13T02:33:15.906Z,40.6
2018-08-13T02:34:17.525Z,40.6
2018-08-13T02:35:19.129Z,40.1
2018-08-13T02:36:20.572Z,40.1
2018-08-13T02:37:22.043Z,40.1
2018-08-13T02:38:23.641Z,40.1
2018-08-13T02:39:24.973Z,40.1
2018-08-13T02:40:26.642Z,39.6
2018-08-13T02:41:28.074Z,40.1
2018-08-13T02:42:29.685Z,39.6
2018-08-13T02:43:31.286Z,39.6
2018-08-13T02:44:32.726Z,39.6
2018-08-13T02:45:34.367Z,40.1
2018-08-13T02:46:35.828Z,40.1
2018-08-13T02:47:37.426Z,39.6
2018-08-13T02:48:39.030Z,40.1
2018-08-13T02:49:40.468Z,39.1
2018-08-13T02:50:41.747Z,39.6
2018-08-13T02:51:43.195Z,39.6
2018-08-13T02:52:44.625Z,39.6
2018-08-13T02:53:46.225Z,40.1
2018-08-13T02:54:47.823Z,40.1
2018-08-13T02:55:49.418Z,40.1
2018-08-13T02:56:51.057Z,39.6
2018-08-13T02:57:52.665Z,39.1
2018-08-13T02:58:54.113Z,39.6
2018-08-13T02:59:55.258Z,39.6
2018-08-13T03:00:56.703Z,39.6
2018-08-13T03:01:58.151Z,39.6
2018-08-13T03:02:59.754Z,39.6
2018-08-13T03:04:01.194Z,39.6
2018-08-13T03:05:02.811Z,40.1
2018-08-13T03:06:04.082Z,40.1
2018-08-13T03:07:05.695Z,39.1
2018-08-13T03:08:06.975Z,39.1
2018-08-13T03:09:08.581Z,39.1
2018-08-13T03:10:10.027Z,39.1
2018-08-13T03:11:11.295Z,40.1
2018-08-13T03:12:12.734Z,39.1
2018-08-13T03:13:14.183Z,39.6
2018-08-13T03:14:15.789Z,39.6
2018-08-13T03:15:17.384Z,39.1
2018-08-13T03:16:19.020Z,39.6
2018-08-13T03:17:20.599Z,40.1
2018-08-13T03:18:21.883Z,40.1
2018-08-13T03:19:23.516Z,39.6
2018-08-13T03:20:24.968Z,39.6
2018-08-13T03:21:26.414Z,40.6
2018-08-13T03:22:28.013Z,40.1
2018-08-13T03:23:29.287Z,40.1
2018-08-13T03:24:30.740Z,40.6
2018-08-13T03:25:32.164Z,40.6
2018-08-13T03:26:33.610Z,41.1
2018-08-13T03:27:35.219Z,41.1
2018-08-13T03:28:36.810Z,40.6
2018-08-13T03:29:38.412Z,41.1
2018-08-13T03:30:40.013Z,41.1
2018-08-13T03:31:41.620Z,41.5
2018-08-13T03:32:43.050Z,42
2018-08-13T03:33:44.327Z,41.5
2018-08-13T03:34:45.780Z,41.5
2018-08-13T03:35:47.234Z,41.1
2018-08-13T03:36:48.685Z,41.5
2018-08-13T03:37:50.134Z,41.5
2018-08-13T03:38:51.564Z,41.5
2018-08-13T03:39:53.000Z,40.6
2018-08-13T03:40:54.441Z,41.5
2018-08-13T03:41:55.860Z,41.1
2018-08-13T03:42:57.125Z,41.5
2018-08-13T03:43:58.716Z,41.5
2018-08-13T03:45:00.352Z,41.5
2018-08-13T03:46:01.948Z,41.1
2018-08-13T03:47:03.553Z,41.5
2018-08-13T03:48:05.149Z,41.1
2018-08-13T03:49:06.756Z,40.6
2018-08-13T03:50:08.356Z,41.1
2018-08-13T03:51:09.962Z,41.1
2018-08-13T03:52:11.218Z,41.1
2018-08-13T03:53:12.814Z,42
2018-08-13T03:54:14.237Z,42
2018-08-13T03:55:15.827Z,41.1
2018-08-13T03:56:17.114Z,42
2018-08-13T03:57:18.723Z,41.1
2018-08-13T03:58:20.170Z,41.5
2018-08-13T03:59:21.765Z,41.5
2018-08-13T04:00:23.205Z,42
2018-08-13T04:01:24.660Z,40.6
2018-08-13T04:02:26.265Z,41.1
2018-08-13T04:03:27.542Z,40.6
2018-08-13T04:04:29.139Z,40.6
2018-08-13T04:05:30.589Z,41.1
2018-08-13T04:06:32.245Z,40.6
2018-08-13T04:07:33.839Z,41.1
2018-08-13T04:08:35.431Z,40.6
2018-08-13T04:09:36.686Z,40.6
2018-08-13T04:10:38.289Z,40.6
2018-08-13T04:11:39.881Z,41.1
2018-08-13T04:12:41.479Z,40.6
2018-08-13T04:13:42.755Z,40.6
2018-08-13T04:14:44.360Z,40.6
2018-08-13T04:15:45.953Z,40.6
2018-08-13T04:16:47.229Z,40.6
2018-08-13T04:17:48.818Z,40.6
2018-08-13T04:18:50.434Z,41.1
2018-08-13T04:19:52.073Z,40.6
2018-08-13T04:20:53.516Z,41.1
2018-08-13T04:21:55.118Z,40.6
2018-08-13T04:22:56.735Z,40.1
2018-08-13T04:23:58.020Z,41.1
2018-08-13T04:24:59.299Z,41.1
2018-08-13T04:26:00.901Z,40.6
2018-08-13T04:27:02.491Z,40.6
2018-08-13T04:28:03.937Z,39.6
2018-08-13T04:29:05.520Z,40.1
2018-08-13T04:30:06.961Z,40.1
2018-08-13T04:31:08.413Z,40.1
2018-08-13T04:32:10.021Z,40.1
2018-08-13T04:33:11.472Z,40.6
2018-08-13T04:34:12.911Z,40.6
2018-08-13T04:35:14.188Z,40.1
2018-08-13T04:36:15.800Z,40.1
2018-08-13T04:37:17.415Z,40.6
2018-08-13T04:38:18.695Z,40.6
2018-08-13T04:39:20.136Z,40.1
2018-08-13T04:40:21.403Z,39.6
2018-08-13T04:41:22.838Z,40.1
2018-08-13T04:42:24.278Z,40.6
2018-08-13T04:43:25.899Z,40.1
2018-08-13T04:44:27.000Z,39.6
2018-08-13T04:45:28.433Z,39.6
2018-08-13T04:46:29.706Z,40.1
2018-08-13T04:47:31.152Z,40.1
2018-08-13T04:48:32.585Z,40.1
2018-08-13T04:49:34.216Z,40.1
2018-08-13T04:50:35.717Z,40.6
2018-08-13T04:51:37.146Z,40.1
2018-08-13T04:52:38.582Z,39.1
2018-08-13T04:53:39.692Z,39.6
2018-08-13T04:54:41.307Z,39.1
2018-08-13T04:55:42.905Z,40.1
2018-08-13T04:56:44.171Z,40.1
2018-08-13T04:57:45.616Z,39.1
2018-08-13T04:58:47.045Z,40.1
2018-08-13T04:59:48.412Z,39.1
2018-08-13T05:00:49.862Z,39.6
2018-08-13T05:01:51.308Z,39.6
2018-08-13T05:02:52.769Z,39.6
2018-08-13T05:03:54.035Z,39.1
2018-08-13T05:04:55.649Z,39.6
2018-08-13T05:05:57.249Z,39.6
2018-08-13T05:06:58.835Z,39.1
2018-08-13T05:07:59.932Z,39.1
2018-08-13T05:09:01.534Z,40.1
2018-08-13T05:10:02.788Z,39.6
2018-08-13T05:11:04.223Z,39.6
2018-08-13T05:12:05.816Z,39.1
2018-08-13T05:13:07.431Z,40.1
2018-08-13T05:14:09.014Z,40.1
2018-08-13T05:15:10.453Z,40.1
2018-08-13T05:16:11.992Z,39.1
2018-08-13T05:17:13.497Z,39.6
2018-08-13T05:18:15.097Z,39.6
2018-08-13T05:19:16.734Z,40.1
2018-08-13T05:20:18.333Z,39.6
2018-08-13T05:21:20.317Z,39.1
2018-08-13T05:22:22.111Z,40.1
2018-08-13T05:23:23.713Z,40.6
2018-08-13T05:24:25.339Z,41.1
2018-08-13T05:25:26.759Z,41.5
2018-08-13T05:26:28.047Z,40.6
2018-08-13T05:27:29.660Z,41.1
2018-08-13T05:28:31.165Z,41.5
2018-08-13T05:29:32.767Z,41.5
2018-08-13T05:30:34.387Z,41.5
2018-08-13T05:31:35.996Z,41.5
2018-08-13T05:32:37.629Z,42
2018-08-13T05:33:39.221Z,42
2018-08-13T05:34:40.655Z,41.1
2018-08-13T05:35:42.249Z,42
2018-08-13T05:36:43.859Z,42
2018-08-13T05:37:45.457Z,41.5
2018-08-13T05:38:46.893Z,41.5
2018-08-13T05:39:48.347Z,41.5
2018-08-13T05:40:49.952Z,41.5
2018-08-13T05:41:51.412Z,42
2018-08-13T05:42:52.836Z,42
2018-08-13T05:43:54.287Z,42.5
2018-08-13T05:44:55.877Z,42
2018-08-13T05:45:57.500Z,42
2018-08-13T05:46:58.943Z,41.1
2018-08-13T05:48:00.380Z,42
2018-08-13T05:49:01.841Z,41.1
2018-08-13T05:50:03.446Z,41.5
2018-08-13T05:51:04.896Z,41.5
2018-08-13T05:52:06.502Z,42.5
2018-08-13T05:53:08.124Z,41.1
2018-08-13T05:54:09.725Z,42
2018-08-13T05:55:11.337Z,42
2018-08-13T05:56:12.787Z,42
2018-08-13T05:57:14.415Z,41.5
2018-08-13T05:58:15.916Z,40.6
2018-08-13T05:59:17.541Z,41.1
2018-08-13T06:00:19.147Z,41.5
2018-08-13T06:01:20.756Z,41.5
2018-08-13T06:02:22.229Z,40.6
2018-08-13T06:03:23.682Z,41.5
2018-08-13T06:04:25.315Z,42
2018-08-13T06:05:26.421Z,41.1
2018-08-13T06:06:28.036Z,40.6
2018-08-13T06:07:29.644Z,41.5
2018-08-13T06:08:31.236Z,41.1
2018-08-13T06:09:32.701Z,40.6
2018-08-13T06:10:34.130Z,41.1
2018-08-13T06:11:35.844Z,42
2018-08-13T06:12:37.802Z,40.6
2018-08-13T06:13:39.418Z,41.1
2018-08-13T06:14:40.852Z,40.6
2018-08-13T06:15:42.458Z,40.6
2018-08-13T06:16:43.887Z,41.1
2018-08-13T06:17:45.334Z,41.1
2018-08-13T06:18:46.776Z,40.6
2018-08-13T06:19:48.390Z,41.1
2018-08-13T06:20:49.833Z,40.6
2018-08-13T06:21:51.440Z,41.5
2018-08-13T06:22:53.045Z,40.6
2018-08-13T06:23:54.507Z,40.6
2018-08-13T06:24:55.954Z,40.6
2018-08-13T06:25:57.399Z,39.6
2018-08-13T06:26:58.988Z,40.6
2018-08-13T06:28:00.575Z,41.1
2018-08-13T06:29:02.197Z,40.6
2018-08-13T06:30:03.774Z,40.6
2018-08-13T06:31:05.381Z,40.6
2018-08-13T06:32:06.821Z,41.1
2018-08-13T06:33:08.540Z,40.1
2018-08-13T06:34:10.045Z,40.1
2018-08-13T06:35:11.656Z,40.1
2018-08-13T06:36:13.091Z,40.1
2018-08-13T06:37:15.147Z,40.1
2018-08-13T06:38:16.897Z,40.6
2018-08-13T06:39:18.159Z,40.6
2018-08-13T06:40:19.597Z,40.6
2018-08-13T06:41:21.210Z,40.1
2018-08-13T06:42:22.833Z,40.1
2018-08-13T06:43:24.288Z,39.6
2018-08-13T06:44:25.912Z,40.6
2018-08-13T06:45:27.204Z,40.6
2018-08-13T06:46:28.844Z,40.6
2018-08-13T06:47:30.473Z,39.6
2018-08-13T06:48:32.069Z,40.1
2018-08-13T06:49:33.666Z,39.6
2018-08-13T06:50:35.114Z,40.6
2018-08-13T06:51:36.745Z,40.1
2018-08-13T06:52:38.363Z,40.1
2018-08-13T06:53:39.972Z,39.1
2018-08-13T06:54:41.581Z,39.6
2018-08-13T06:55:43.179Z,39.6
2018-08-13T06:56:44.782Z,39.6
2018-08-13T06:57:46.415Z,39.6
2018-08-13T06:58:48.027Z,39.6
2018-08-13T06:59:49.640Z,40.1
2018-08-13T07:00:51.356Z,39.6
2018-08-13T07:01:53.213Z,39.6
2018-08-13T07:02:54.811Z,40.1
2018-08-13T07:03:55.930Z,39.1
2018-08-13T07:04:57.222Z,40.1
2018-08-13T07:05:58.935Z,40.1
2018-08-13T07:07:00.727Z,40.6
2018-08-13T07:08:02.344Z,40.6
2018-08-13T07:09:04.047Z,40.6
2018-08-13T07:10:05.500Z,40.1
2018-08-13T07:11:07.157Z,40.1
2018-08-13T07:12:08.776Z,41.5
2018-08-13T07:13:10.405Z,40.6
2018-08-13T07:14:11.854Z,41.5
2018-08-13T07:15:13.525Z,41.1
2018-08-13T07:16:15.134Z,41.5
2018-08-13T07:17:16.732Z,41.5
2018-08-13T07:18:18.344Z,41.5
2018-08-13T07:19:19.790Z,41.5
2018-08-13T07:20:21.235Z,42
2018-08-13T07:21:22.844Z,41.5
2018-08-13T07:22:24.973Z,42.5
2018-08-13T07:23:26.609Z,41.5
2018-08-13T07:24:28.062Z,42
2018-08-13T07:25:29.661Z,41.5
2018-08-13T07:26:31.135Z,42.5
2018-08-13T07:27:32.774Z,42
2018-08-13T07:28:34.399Z,41.5
2018-08-13T07:29:36.002Z,41.5
2018-08-13T07:30:37.610Z,42
2018-08-13T07:31:39.226Z,43
2018-08-13T07:32:40.841Z,42
2018-08-13T07:33:42.746Z,42
2018-08-13T07:34:44.618Z,41.5
2018-08-13T07:35:46.236Z,42.5
2018-08-13T07:36:47.873Z,41.1
2018-08-13T07:37:49.486Z,41.5
2018-08-13T07:38:50.994Z,41.5
2018-08-13T07:39:52.707Z,41.5
2018-08-13T07:40:54.164Z,42.5
2018-08-13T07:41:55.616Z,42.5
2018-08-13T07:42:57.241Z,41.5
2018-08-13T07:43:58.843Z,42
2018-08-13T07:45:00.486Z,41.5
2018-08-13T07:46:02.096Z,41.5
2018-08-13T07:47:03.705Z,41.5
2018-08-13T07:48:05.301Z,42
2018-08-13T07:49:06.749Z,41.5
2018-08-13T07:50:08.232Z,41.5
2018-08-13T07:51:09.840Z,42
2018-08-13T07:52:11.447Z,41.5
2018-08-13T07:53:13.093Z,41.5
2018-08-13T07:54:14.736Z,41.1
2018-08-13T07:55:16.183Z,41.5
2018-08-13T07:56:17.638Z,40.6
2018-08-13T07:57:19.079Z,41.1
2018-08-13T07:58:20.542Z,41.1
2018-08-13T07:59:21.961Z,41.1
2018-08-13T08:00:23.387Z,41.1
2018-08-13T08:01:25.003Z,41.5
2018-08-13T08:02:26.607Z,41.1
2018-08-13T08:03:28.050Z,41.1
2018-08-13T08:04:29.673Z,40.6
2018-08-13T08:05:31.277Z,41.5
2018-08-13T08:06:32.560Z,41.1
2018-08-13T08:07:34.164Z,41.1
2018-08-13T08:08:35.771Z,41.1
2018-08-13T08:09:37.386Z,41.1
2018-08-13T08:10:39.005Z,40.6
2018-08-13T08:11:40.616Z,40.6
2018-08-13T08:12:42.100Z,41.1
2018-08-13T08:13:43.544Z,40.6
2018-08-13T08:14:45.600Z,41.5
2018-08-13T08:15:47.558Z,40.6
2018-08-13T08:16:48.826Z,40.6
2018-08-13T08:17:50.279Z,40.6
2018-08-13T08:18:51.573Z,41.1
2018-08-13T08:19:53.209Z,41.1
2018-08-13T08:20:54.832Z,39.6
2018-08-13T08:21:56.481Z,41.1
2018-08-13T08:22:58.126Z,40.6
2018-08-13T08:23:59.568Z,40.1
2018-08-13T08:25:01.197Z,40.6
2018-08-13T08:26:02.656Z,41.1
2018-08-13T08:27:04.266Z,40.6
2018-08-13T08:28:05.886Z,41.1
2018-08-13T08:29:07.505Z,40.6
2018-08-13T08:30:09.194Z,40.6
2018-08-13T08:31:10.788Z,40.1
2018-08-13T08:32:12.412Z,40.6
2018-08-13T08:33:13.884Z,40.1
2018-08-13T08:34:15.500Z,39.6
2018-08-13T08:35:16.963Z,40.1
2018-08-13T08:36:18.412Z,39.6
2018-08-13T08:37:20.017Z,39.6
2018-08-13T08:38:21.472Z,40.6
2018-08-13T08:39:23.270Z,39.6
2018-08-13T08:40:25.004Z,39.6
2018-08-13T08:41:26.762Z,39.6
2018-08-13T08:42:28.416Z,39.6
2018-08-13T08:43:30.030Z,39.1
2018-08-13T08:44:31.472Z,40.1
2018-08-13T08:45:32.903Z,39.6
2018-08-13T08:46:34.526Z,39.6
2018-08-13T08:47:36.137Z,40.1
2018-08-13T08:48:37.600Z,39.1
2018-08-13T08:49:39.040Z,39.1
2018-08-13T08:50:40.496Z,40.1
2018-08-13T08:51:42.105Z,40.1
2018-08-13T08:52:43.545Z,39.1
2018-08-13T08:53:44.863Z,40.1
2018-08-13T08:54:46.298Z,40.1
2018-08-13T08:55:47.747Z,39.6
2018-08-13T08:56:49.192Z,39.6
2018-08-13T08:57:50.672Z,40.6
2018-08-13T08:58:52.123Z,40.1
2018-08-13T08:59:53.558Z,40.1
2018-08-13T09:00:55.176Z,40.6
2018-08-13T09:01:56.813Z,40.6
2018-08-13T09:02:58.260Z,40.6
2018-08-13T09:03:59.725Z,41.1
2018-08-13T09:05:01.317Z,40.6
2018-08-13T09:06:03.456Z,40.6
2018-08-13T09:07:05.331Z,41.5
2018-08-13T09:08:06.759Z,41.1
2018-08-13T09:09:08.394Z,41.5
2018-08-13T09:10:10.004Z,42
2018-08-13T09:11:11.614Z,41.5
2018-08-13T09:12:13.216Z,41.1
2018-08-13T09:13:14.833Z,42.5
2018-08-13T09:14:16.761Z,41.5
2018-08-13T09:15:18.723Z,41.5
2018-08-13T09:16:20.146Z,41.5
2018-08-13T09:17:21.605Z,42.5
2018-08-13T09:18:23.203Z,42
2018-08-13T09:19:24.881Z,42
2018-08-13T09:20:26.337Z,41.5
2018-08-13T09:21:27.968Z,42
2018-08-13T09:22:29.578Z,42
2018-08-13T09:23:31.001Z,42
2018-08-13T09:24:32.619Z,42
2018-08-13T09:25:34.460Z,42
2018-08-13T09:26:36.239Z,42.5
2018-08-13T09:27:37.541Z,42
2018-08-13T09:28:39.156Z,42
2018-08-13T09:29:40.618Z,42
2018-08-13T09:30:42.094Z,41.1
2018-08-13T09:31:43.529Z,41.5
2018-08-13T09:32:45.186Z,42
2018-08-13T09:33:46.636Z,41.5
2018-08-13T09:34:48.239Z,42
2018-08-13T09:35:49.685Z,41.1
2018-08-13T09:36:51.328Z,41.1
2018-08-13T09:37:52.433Z,42.5
2018-08-13T09:38:54.037Z,42
2018-08-13T09:39:55.776Z,41.5
2018-08-13T09:40:57.308Z,41.5
2018-08-13T09:41:58.787Z,41.1
2018-08-13T09:43:00.403Z,41.5
2018-08-13T09:44:02.036Z,41.1
2018-08-13T09:45:03.649Z,41.5
2018-08-13T09:46:05.103Z,40.6
2018-08-13T09:47:06.715Z,41.1
2018-08-13T09:48:08.682Z,41.1
2018-08-13T09:49:10.427Z,41.5
2018-08-13T09:50:12.033Z,41.5
2018-08-13T09:51:13.477Z,40.6
2018-08-13T09:52:15.107Z,41.1
2018-08-13T09:53:16.718Z,40.6
2018-08-13T09:54:18.181Z,41.5
2018-08-13T09:55:19.800Z,41.1
2018-08-13T09:56:21.414Z,41.1
2018-08-13T09:57:22.871Z,41.1
2018-08-13T09:58:24.490Z,40.6
2018-08-13T09:59:25.949Z,40.6
2018-08-13T10:00:27.658Z,40.6
2018-08-13T10:01:29.275Z,41.1
2018-08-13T10:02:30.912Z,40.6
2018-08-13T10:03:32.516Z,40.6
2018-08-13T10:04:34.119Z,40.6
2018-08-13T10:05:35.601Z,40.1
2018-08-13T10:06:37.218Z,41.1
2018-08-13T10:07:38.820Z,40.6
2018-08-13T10:08:40.419Z,40.1
2018-08-13T10:09:42.026Z,41.1
2018-08-13T10:10:43.777Z,40.6
2018-08-13T10:11:45.469Z,41.1
2018-08-13T10:12:47.066Z,41.1
2018-08-13T10:13:48.494Z,39.6
2018-08-13T10:14:49.947Z,40.6
2018-08-13T10:15:51.572Z,40.6
2018-08-13T10:16:53.808Z,40.1
2018-08-13T10:17:56.003Z,40.6
2018-08-13T10:18:57.548Z,39.6
2018-08-13T10:19:59.024Z,41.1
2018-08-13T10:21:00.631Z,40.6
2018-08-13T10:22:02.246Z,40.1
2018-08-13T10:23:03.541Z,40.1
2018-08-13T10:24:05.163Z,40.6
2018-08-13T10:25:06.749Z,39.6
2018-08-13T10:26:08.352Z,40.1
2018-08-13T10:27:09.966Z,40.6
2018-08-13T10:28:11.417Z,40.1
2018-08-13T10:29:12.847Z,39.1
2018-08-13T10:30:14.301Z,40.6
2018-08-13T10:31:15.904Z,40.1
2018-08-13T10:32:17.528Z,40.1
2018-08-13T10:33:18.970Z,40.6
2018-08-13T10:34:20.563Z,40.1
2018-08-13T10:35:22.011Z,40.1
2018-08-13T10:36:23.618Z,40.1
2018-08-13T10:37:25.275Z,40.6
2018-08-13T10:38:26.829Z,39.1
2018-08-13T10:39:28.302Z,39.6
2018-08-13T10:40:29.901Z,40.1
2018-08-13T10:41:31.515Z,39.1
2018-08-13T10:42:33.125Z,39.1
2018-08-13T10:43:35.026Z,39.6
2018-08-13T10:44:37.007Z,39.6
2018-08-13T10:45:38.630Z,39.1
2018-08-13T10:46:40.247Z,39.6
2018-08-13T10:47:41.709Z,40.1
2018-08-13T10:48:42.964Z,39.6
2018-08-13T10:49:44.575Z,40.1
2018-08-13T10:50:46.184Z,39.1
2018-08-13T10:51:47.792Z,40.6
2018-08-13T10:52:49.393Z,39.6
2018-08-13T10:53:50.985Z,40.1
2018-08-13T10:54:52.261Z,39.6
2018-08-13T10:55:53.705Z,39.6
2018-08-13T10:56:55.139Z,39.6
2018-08-13T10:57:56.747Z,40.1
2018-08-13T10:58:58.362Z,40.6
2018-08-13T10:59:59.980Z,40.1
2018-08-13T11:01:01.816Z,40.6
2018-08-13T11:02:03.475Z,41.1
2018-08-13T11:03:05.036Z,40.6
2018-08-13T11:04:06.346Z,41.5
2018-08-13T11:05:07.621Z,40.6
2018-08-13T11:06:09.262Z,40.1
2018-08-13T11:07:10.707Z,41.1
2018-08-13T11:08:12.311Z,41.1
2018-08-13T11:09:13.581Z,41.5
2018-08-13T11:10:15.373Z,42
2018-08-13T11:11:17.107Z,42
2018-08-13T11:12:18.724Z,41.5
2018-08-13T11:13:20.305Z,41.5
2018-08-13T11:14:21.794Z,41.5
2018-08-13T11:15:23.396Z,42
2018-08-13T11:16:24.832Z,41.5
2018-08-13T11:17:26.437Z,42
2018-08-13T11:18:27.880Z,42
2018-08-13T11:19:29.330Z,41.1
2018-08-13T11:20:30.771Z,42.5
2018-08-13T11:21:32.470Z,42.5
2018-08-13T11:22:33.952Z,42.5
2018-08-13T11:23:35.382Z,42
2018-08-13T11:24:36.658Z,42
2018-08-13T11:25:38.272Z,41.5
2018-08-13T11:26:39.905Z,42
2018-08-13T11:27:41.372Z,42
2018-08-13T11:28:43.697Z,42
2018-08-13T11:29:45.649Z,41.1
2018-08-13T11:30:47.252Z,42
2018-08-13T11:31:48.930Z,42
2018-08-13T11:32:50.367Z,41.5
2018-08-13T11:33:51.795Z,42
2018-08-13T11:34:53.833Z,42
2018-08-13T11:35:55.474Z,42
2018-08-13T11:36:56.899Z,41.1
2018-08-13T11:37:58.521Z,41.1
2018-08-13T11:39:00.161Z,41.5
2018-08-13T11:40:01.766Z,41.5
2018-08-13T11:41:03.382Z,41.1
2018-08-13T11:42:04.813Z,42.5
2018-08-13T11:43:06.448Z,41.1
2018-08-13T11:44:08.057Z,41.5
2018-08-13T11:45:09.670Z,41.5
2018-08-13T11:46:11.144Z,41.5
2018-08-13T11:47:12.565Z,42
2018-08-13T11:48:13.993Z,41.1
2018-08-13T11:49:15.533Z,41.1
2018-08-13T11:50:17.197Z,41.5
2018-08-13T11:51:18.824Z,41.5
2018-08-13T11:52:20.589Z,41.5
2018-08-13T11:53:22.298Z,41.1
2018-08-13T11:54:23.754Z,41.5
2018-08-13T11:55:25.185Z,41.5
2018-08-13T11:56:26.975Z,41.1
2018-08-13T11:57:28.240Z,40.6
2018-08-13T11:58:29.532Z,41.1
2018-08-13T11:59:31.140Z,41.1
2018-08-13T12:00:32.582Z,40.6
2018-08-13T12:01:34.192Z,41.1
2018-08-13T12:02:35.506Z,40.6
2018-08-13T12:03:37.129Z,41.1
2018-08-13T12:04:38.577Z,40.6
2018-08-13T12:05:40.190Z,41.1
2018-08-13T12:06:41.641Z,40.6
2018-08-13T12:07:43.132Z,41.1
2018-08-13T12:08:44.564Z,41.5
2018-08-13T12:09:46.205Z,40.6
2018-08-13T12:10:47.807Z,41.1
2018-08-13T12:11:49.415Z,41.1
2018-08-13T12:12:50.856Z,40.1
2018-08-13T12:13:52.284Z,41.1
2018-08-13T12:14:53.933Z,41.1
2018-08-13T12:15:55.361Z,40.6
2018-08-13T12:16:56.973Z,40.6
2018-08-13T12:17:58.568Z,41.1
2018-08-13T12:19:00.183Z,40.6
2018-08-13T12:20:01.800Z,40.6
2018-08-13T12:21:03.252Z,40.6
2018-08-13T12:22:04.837Z,40.1
2018-08-13T12:23:06.436Z,41.1
2018-08-13T12:24:08.044Z,40.6
2018-08-13T12:25:09.640Z,40.6
2018-08-13T12:26:11.077Z,40.6
2018-08-13T12:27:12.694Z,40.6
2018-08-13T12:28:14.143Z,40.1
2018-08-13T12:29:15.758Z,40.1
2018-08-13T12:30:17.390Z,39.6
2018-08-13T12:31:18.832Z,40.1
2018-08-13T12:32:20.434Z,40.6
2018-08-13T12:33:22.027Z,40.6
2018-08-13T12:34:23.631Z,40.6
2018-08-13T12:35:25.266Z,40.6
2018-08-13T12:36:26.881Z,40.1
2018-08-13T12:37:28.501Z,40.1
2018-08-13T12:38:30.122Z,40.1
2018-08-13T12:39:31.757Z,39.6
2018-08-13T12:40:33.358Z,40.1
2018-08-13T12:41:34.637Z,40.1
2018-08-13T12:42:36.252Z,40.1
2018-08-13T12:43:37.868Z,41.1
2018-08-13T12:44:39.311Z,39.6
2018-08-13T12:45:40.749Z,39.6
2018-08-13T12:46:42.185Z,40.6
2018-08-13T12:47:43.779Z,39.6
2018-08-13T12:48:45.401Z,39.6
2018-08-13T12:49:47.030Z,39.1
2018-08-13T12:50:48.647Z,40.1
2018-08-13T12:51:50.291Z,39.6
2018-08-13T12:52:51.894Z,40.1
2018-08-13T12:53:53.197Z,40.6
2018-08-13T12:54:54.813Z,40.6
2018-08-13T12:55:56.077Z,39.1
2018-08-13T12:56:57.518Z,39.1
2018-08-13T12:57:59.191Z,40.1
2018-08-13T12:59:00.800Z,39.6
2018-08-13T13:00:02.252Z,39.6
2018-08-13T13:01:03.707Z,40.6
2018-08-13T13:02:05.312Z,40.1
2018-08-13T13:03:06.911Z,40.6
2018-08-13T13:04:08.540Z,40.1
2018-08-13T13:05:09.978Z,40.1
2018-08-13T13:06:11.454Z,40.1
2018-08-13T13:07:13.057Z,40.6
2018-08-13T13:08:14.323Z,40.6
2018-08-13T13:09:15.761Z,41.1
2018-08-13T13:10:17.369Z,40.6
2018-08-13T13:11:18.989Z,41.5
2018-08-13T13:12:20.607Z,41.1
2018-08-13T13:13:21.880Z,41.5
2018-08-13T13:14:23.482Z,41.5
2018-08-13T13:15:25.125Z,41.5
2018-08-13T13:16:26.735Z,42
2018-08-13T13:17:28.209Z,42
2018-08-13T13:18:29.836Z,41.1
2018-08-13T13:19:31.453Z,42.5
2018-08-13T13:20:33.194Z,42.5
2018-08-13T13:21:35.017Z,41.5
2018-08-13T13:22:36.624Z,41.5
2018-08-13T13:23:38.055Z,42
2018-08-13T13:24:39.489Z,42.5
2018-08-13T13:25:41.101Z,42
2018-08-13T13:26:42.713Z,42
2018-08-13T13:27:44.315Z,43
2018-08-13T13:28:45.748Z,42
2018-08-13T13:29:47.016Z,42
2018-08-13T13:30:48.292Z,42
2018-08-13T13:31:49.771Z,42
2018-08-13T13:32:51.076Z,41.5
2018-08-13T13:33:52.530Z,42
2018-08-13T13:34:54.139Z,41.1
2018-08-13T13:35:55.748Z,42
2018-08-13T13:36:57.357Z,40.6
2018-08-13T13:37:58.951Z,42
2018-08-13T13:39:00.411Z,42
2018-08-13T13:40:01.856Z,41.5
2018-08-13T13:41:03.452Z,42
2018-08-13T13:42:05.072Z,42
2018-08-13T13:43:06.687Z,42.5
2018-08-13T13:44:08.110Z,41.5